Flight Track Log - Related Links

Times and Time Zones

All times are in EST time to prevent confusion due to time zone crossing. See the C-GTEV flight status page for this flight to view local times or setup timezone preferences in your user account.

Time Position Orientation Groundspeed Altitude Reporting Facility
EST Latitude Longitude Course Direction KTS MPH feet Rate Location/Type
Tue 06:36:18 AM 43.4333 -79.9167 235° Southwest 160 184 2,200  Level Toronto Center
Tue 06:37:18 AM 43.4167 -79.9500 235° Southwest 160 184 4,000 1,700 Climbing Toronto Center
Tue 06:38:18 AM 43.3667 -80.0000 216° Southwest 170 196 5,600 1,650 Climbing Toronto Center
Tue 06:39:18 AM 43.3500 -80.0500 245° Southwest 160 184 7,300 1,400 Climbing Toronto Center
Tue 06:40:18 AM 43.3333 -80.0833 236° Southwest 160 184 8,400 1,350 Climbing Toronto Center
Tue 06:41:18 AM 43.3333 -80.1667 270° West 170 196 10,000 1,350 Climbing Toronto Center
Tue 06:42:18 AM 43.3333 -80.2333 270° West 170 196 11,100 1,100 Climbing Toronto Center
Tue 06:43:18 AM 43.3167 -80.3000 251° West 180 207 12,200 1,100 Climbing Toronto Center
Tue 06:44:18 AM 43.3167 -80.3667 270° West 190 219 13,300 1,200 Climbing Toronto Center
Tue 06:45:18 AM 43.3000 -80.4333 251° West 180 207 14,600 1,200 Climbing Toronto Center
Tue 06:46:18 AM 43.3000 -80.5000 270° West 170 196 15,700 950 Climbing Toronto Center
Tue 06:47:18 AM 43.3000 -80.5500 270° West 160 184 16,500 800 Climbing Toronto Center
Tue 06:48:18 AM 43.2833 -80.6167 251° West 160 184 17,300 650 Climbing Toronto Center
Tue 06:49:18 AM 43.2833 -80.6667 270° West 150 173 17,800 600 Climbing Toronto Center
Tue 06:50:18 AM 43.2833 -80.7333 270° West 150 173 18,500 700 Climbing Toronto Center
Tue 06:51:18 AM 43.2667 -80.7833 245° Southwest 150 173 19,200 650 Climbing Toronto Center
Tue 06:52:18 AM 43.2500 -80.8500 251° West 140 161 19,800 450 Climbing Toronto Center
Tue 06:53:18 AM 43.2500 -80.9000 270° West 150 173 20,100 100 Climbing Toronto Center
Tue 06:54:18 AM 43.2333 -80.9667 251° West 170 196 20,000 -50 Descending Toronto Center
Tue 06:55:18 AM 43.2333 -81.0333 270° West 180 207 20,000  Level Toronto Center
Tue 06:56:18 AM 43.2167 -81.1000 251° West 180 207 20,000 50 Level Toronto Center
Tue 06:57:18 AM 43.2167 -81.1667 270° West 180 207 20,100  Climbing Toronto Center
Tue 06:58:18 AM 43.2167 -81.2333 270° West 180 207 20,000 -50 Descending Toronto Center
Tue 06:59:18 AM 43.2000 -81.3000 251° West 190 219 20,000  Level Toronto Center
Tue 07:00:18 AM 43.2000 -81.3667 270° West 190 219 20,000 50 Level Toronto Center
Tue 07:01:18 AM 43.1833 -81.4333 251° West 190 219 20,100 50 Climbing Toronto Center
Tue 07:02:18 AM 43.1833 -81.5000 270° West 190 219 20,100 -50 Level Toronto Center
Tue 07:03:18 AM 43.1667 -81.5833 255° West 190 219 20,000 -50 Descending Toronto Center
Tue 07:04:18 AM 43.1667 -81.6667 270° West 190 219 20,000  Level Toronto Center
Tue 07:05:18 AM 43.1500 -81.7333 251° West 190 219 20,000 50 Level Toronto Center
Tue 07:06:18 AM 43.1500 -81.8000 270° West 190 219 20,100  Climbing Toronto Center
Tue 07:07:18 AM 43.1500 -81.8667 270° West 190 219 20,000 -50 Descending Toronto Center
Tue 07:08:18 AM 43.1167 -81.9333 236° Southwest 190 219 20,000  Level Toronto Center
Tue 07:09:18 AM 43.1167 -82.0167 270° West 190 219 20,000  Level Toronto Center
Tue 07:10:18 AM 43.1000 -82.0833 251° West 190 219 20,000  Level Toronto Center
Tue 07:11:18 AM 43.1000 -82.1500 270° West 190 219 20,000  Level Toronto Center
Tue 07:12:18 AM 43.0833 -82.2167 251° West 190 219 20,000  Level Toronto Center
Tue 07:13:18 AM 43.0833 -82.2833 270° West 190 219 20,000 50 Level Toronto Center
Tue 07:14:18 AM 43.0833 -82.3500 270° West 190 219 20,100 50 Climbing Toronto Center
Tue 07:15:18 AM 43.0667 -82.4167 251° West 180 207 20,100 -50 Level Toronto Center
Tue 07:16:18 AM 43.0667 -82.4833 270° West 190 219 20,000 -50 Descending Toronto Center
Tue 07:17:18 AM 43.0500 -82.5500 251° West 190 219 20,000  Level Toronto Center
Tue 07:18:18 AM 43.0333 -82.6500 257° West 190 219 20,000  Level Toronto Center
Tue 07:18:52 AM 43.0456 -82.6697 310° West 184 212 20,000  Level Cleveland Center
Tue 07:19:53 AM 43.0339 -82.7533 259° West 188 216 20,000  Level Cleveland Center
Tue 07:20:55 AM 43.0228 -82.8186 257° West 181 208 20,000  Level Cleveland Center
Tue 07:21:56 AM 43.0131 -82.8864 259° West 183 211 20,000  Level Cleveland Center
Tue 07:22:58 AM 43.0031 -82.9525 258° West 180 207 20,000 48 Level Cleveland Center
Tue 07:24:00 AM 42.9928 -83.0194 258° West 182 209 20,100  Climbing Cleveland Center
Tue 07:25:01 AM 42.9814 -83.0858 257° West 181 208 20,000 -49 Descending Cleveland Center
Tue 07:26:03 AM 42.9714 -83.1544 259° West 184 212 20,000  Level Cleveland Center
Tue 07:27:04 AM 42.9581 -83.2344 257° West 182 209 20,000  Level Cleveland Center
Tue 07:28:06 AM 42.9483 -83.3011 259° West 181 208 20,000  Level Cleveland Center
Tue 07:29:08 AM 42.9369 -83.3686 257° West 182 209 20,000  Level Cleveland Center
Tue 07:30:09 AM 42.9264 -83.4369 258° West 185 213 20,000 49 Level Cleveland Center
Tue 07:31:11 AM 42.9156 -83.5067 258° West 189 217 20,100  Climbing Cleveland Center
Tue 07:32:13 AM 42.9022 -83.5822 256° West 192 221 20,000 -49 Descending Cleveland Center
Tue 07:33:14 AM 42.8922 -83.6483 258° West 189 217 20,000  Level Cleveland Center
Tue 07:34:16 AM 42.8814 -83.7175 258° West 188 216 20,000 49 Level Cleveland Center
Tue 07:35:17 AM 42.8681 -83.8028 258° West 191 220 20,100  Climbing Cleveland Center
Tue 07:36:19 AM 42.8553 -83.8731 256° West 190 219 20,000 -48 Descending Cleveland Center
Tue 07:37:21 AM 42.8456 -83.9431 259° West 189 217 20,000  Level Cleveland Center
Tue 07:38:22 AM 42.8325 -84.0153 256° West 191 220 20,000 49 Level Cleveland Center
Tue 07:39:24 AM 42.8200 -84.0867 257° West 194 223 20,100  Climbing Cleveland Center
Tue 07:40:26 AM 42.8086 -84.1561 257° West 190 219 20,000 -49 Descending Cleveland Center
Tue 07:41:27 AM 42.7978 -84.2264 258° West 190 219 20,000  Level Cleveland Center
Tue 07:42:29 AM 42.7858 -84.2967 257° West 191 220 20,000  Level Cleveland Center
Tue 07:43:31 AM 42.7739 -84.3672 257° West 191 220 20,000  Level Cleveland Center
Tue 07:44:14 AM 42.7642 -84.4233 257° West 191 220 20,000  Level Chicago Center
Tue 07:45:16 AM 42.7525 -84.4942 257° West 193 222 20,000 49 Level Chicago Center
Tue 07:46:17 AM 42.7406 -84.5650 257° West 193 222 20,100  Climbing Chicago Center
Tue 07:47:19 AM 42.7281 -84.6356 256° West 193 222 20,000 -49 Descending Chicago Center
Tue 07:48:20 AM 42.7133 -84.7206 257° West 193 222 20,000  Level Chicago Center
Tue 07:49:22 AM 42.7014 -84.7928 257° West 196 226 20,000  Level Chicago Center
Tue 07:50:24 AM 42.6886 -84.8639 256° West 195 224 20,000  Level Chicago Center
Tue 07:51:25 AM 42.6769 -84.9342 257° West 193 222 20,000 49 Level Chicago Center
Tue 07:52:27 AM 42.6636 -85.0061 256° West 196 226 20,100  Climbing Chicago Center
Tue 07:53:29 AM 42.6514 -85.0775 257° West 196 226 20,000 -49 Descending Chicago Center
Tue 07:54:30 AM 42.6394 -85.1486 257° West 194 223 20,000 49 Level Chicago Center
Tue 07:55:32 AM 42.6236 -85.2356 256° West 196 226 20,100  Climbing Chicago Center
Tue 07:56:34 AM 42.6111 -85.3044 256° West 191 220 20,000 -48 Descending Chicago Center
Tue 07:57:36 AM 42.5983 -85.3781 257° West 198 228 20,000  Level Chicago Center
Tue 07:58:38 AM 42.5853 -85.4494 256° West 197 227 20,000  Level Chicago Center
Tue 07:59:39 AM 42.5728 -85.5208 257° West 195 224 20,000 49 Level Chicago Center
Tue 08:00:41 AM 42.5594 -85.5936 256° West 199 229 20,100  Climbing Chicago Center
Tue 08:01:43 AM 42.5469 -85.6661 257° West 198 228 20,000 -48 Descending Chicago Center
Tue 08:02:45 AM 42.5331 -85.7375 255° West 197 227 20,000  Level Chicago Center
Tue 08:03:47 AM 42.5172 -85.8225 256° West 194 223 20,000  Level Chicago Center
Tue 08:04:49 AM 42.5050 -85.8942 257° West 194 223 20,000 49 Level Chicago Center
Tue 08:05:50 AM 42.4906 -85.9647 255° West 194 223 20,100 -98 Climbing Chicago Center
Tue 08:06:52 AM 42.4781 -86.0369 257° West 196 226 19,800 -629 Descending Chicago Center
Tue 08:07:54 AM 42.4633 -86.1153 256° West 211 243 18,800 -871 Descending Chicago Center
Tue 08:08:56 AM 42.4619 -86.2019 269° West 227 261 18,000 -919 Descending Chicago Center
Tue 08:09:58 AM 42.4556 -86.2894 264° West 232 267 16,900 -1,210 Descending Chicago Center
Tue 08:11:00 AM 42.4500 -86.3983 266° West 240 276 15,500 -1,306 Descending Chicago Center
Tue 08:12:02 AM 42.4444 -86.4911 265° West 246 283 14,200 -1,306 Descending Chicago Center
Tue 08:13:04 AM 42.4406 -86.5864 267° West 253 291 12,800 -1,355 Descending Chicago Center
Tue 08:14:06 AM 42.4347 -86.6767 265° West 241 277 11,400 -1,355 Descending Chicago Center
Tue 08:15:08 AM 42.4300 -86.7758 266° West 259 298 10,000 -1,306 Descending Chicago Center
Tue 08:16:10 AM 42.4250 -86.8706 266° West 256 295 8,700 -1,597 Descending Chicago Center
Tue 08:17:12 AM 42.4183 -86.9808 265° West 248 285 6,700 -1,548 Descending Chicago Center
Tue 08:18:14 AM 42.4117 -87.0692 264° West 239 275 5,500 -1,210 Descending Chicago Center
Tue 08:19:16 AM 42.4075 -87.1544 266° West 229 264 4,200 -1,210 Descending Chicago Center
Tue 08:20:18 AM 42.4039 -87.2367 267° West 226 260 3,000 -581 Descending Chicago Center
Tue 08:21:20 AM 42.3986 -87.3197 265° West 217 250 3,000  Level Chicago Center
Tue 08:22:58 AM 42.3667 -87.4333 249° West 218 251 3,000  Level Chicago TRACON
Tue 08:23:58 AM 42.3667 -87.5167 270° West 212 244 3,000  Level Chicago TRACON
Tue 08:24:58 AM 42.3500 -87.6000 255° West 213 245 3,000  Level Chicago TRACON
Tue 08:25:58 AM 42.3500 -87.6667 270° West 194 223 3,000  Level Chicago TRACON
Tue 08:26:58 AM 42.3500 -87.7500 270° West 184 212 3,000  Level Chicago TRACON
Tue 08:27:58 AM 42.3333 -87.8167 251° West 184 212 3,000 -100 Level Chicago TRACON
Tue 08:28:58 AM 42.3333 -87.8833 270° West 184 212 2,800 -298 Descending Chicago TRACON
Tue 08:29:59 AM 42.3167 -87.9500 251° West 181 208 2,400 -198 Descending Chicago TRACON
Tue 08:30:59 AM 42.2833 -88.0000 228° Southwest 176 203 2,400  Level Chicago TRACON
Tue 08:31:59 AM 42.2500 -87.9667 143° Southeast 164 189 2,400  Level Chicago TRACON
Tue 08:32:30 AM 42.2283 -87.9628 172° South 168 193 2,400 -65 Level Chicago Center
Tue 08:33:32 AM 42.1833 -87.9403 160° South 165 190 2,300 -97 Descending Chicago Center
Tue 08:36:00 AM 42.1329 -87.9110 166° South  Level FlightAware Approximate

Login

Don't have an account? Register now (free) for customized features, flight alerts, and more!